createdAt,value
2018-06-27T00:01:19.315Z,11.17
2018-06-27T00:05:22.148Z,14.47
2018-06-27T00:09:24.986Z,14.53
2018-06-27T00:13:27.854Z,18.83
2018-06-27T00:17:30.732Z,14.63
2018-06-27T00:21:33.664Z,12.30
2018-06-27T00:25:36.502Z,13.67
2018-06-27T00:29:39.312Z,12.57
2018-06-27T00:33:42.104Z,15.53
2018-06-27T00:37:44.911Z,19.17
2018-06-27T00:41:47.723Z,16.77
2018-06-27T00:45:50.546Z,11.93
2018-06-27T00:49:53.462Z,19.73
2018-06-27T00:54:02.029Z,15.07
2018-06-27T00:58:05.080Z,13.73
2018-06-27T01:02:07.873Z,13.73
2018-06-27T01:06:10.666Z,12.23
2018-06-27T01:10:13.464Z,15.73
2018-06-27T01:14:16.347Z,11.73
2018-06-27T01:18:19.107Z,10.63
2018-06-27T01:22:22.115Z,11.13
2018-06-27T01:26:24.878Z,13.17
2018-06-27T01:30:28.001Z,10.10
2018-06-27T01:34:30.836Z,11.70
2018-06-27T01:38:33.778Z,17.53
2018-06-27T01:42:36.640Z,12.63
2018-06-27T01:46:39.446Z,18.70
2018-06-27T01:50:42.271Z,14.43
2018-06-27T01:54:45.085Z,16.90
2018-06-27T01:58:47.882Z,14.67
2018-06-27T02:02:50.674Z,14.33
2018-06-27T02:06:53.519Z,13.53
2018-06-27T02:10:56.483Z,15.70
2018-06-27T02:14:59.351Z,13.10
2018-06-27T02:19:02.183Z,10.33
2018-06-27T02:23:11.510Z,14.03
2018-06-27T02:27:14.410Z,13.50
2018-06-27T02:31:17.287Z,18.07
2018-06-27T02:35:20.135Z,14.83
2018-06-27T02:39:23.247Z,16.43
2018-06-27T02:43:26.083Z,18.90
2018-06-27T02:47:28.948Z,20.27
2018-06-27T02:51:31.774Z,12.10
2018-06-27T02:55:34.618Z,11.87
2018-06-27T02:59:37.426Z,18.00
2018-06-27T03:03:40.247Z,16.63
2018-06-27T03:07:43.748Z,18.47
2018-06-27T03:11:46.573Z,15.63
2018-06-27T03:15:49.460Z,20.23
2018-06-27T03:19:52.322Z,22.40
2018-06-27T03:23:55.216Z,19.27
2018-06-27T03:27:58.113Z,18.63
2018-06-27T03:32:01.033Z,19.83
2018-06-27T03:36:03.895Z,22.53
2018-06-27T03:40:06.755Z,15.67
2018-06-27T03:44:09.612Z,15.73
2018-06-27T03:48:12.457Z,20.03
2018-06-27T03:52:15.272Z,14.93
2018-06-27T03:56:18.120Z,17.50
2018-06-27T04:00:20.959Z,13.90
2018-06-27T04:04:23.812Z,12.93
2018-06-27T04:08:26.808Z,16.93
2018-06-27T04:12:29.625Z,15.20
2018-06-27T04:16:32.427Z,26.23
2018-06-27T04:20:35.333Z,13.80
2018-06-27T04:24:38.247Z,24.83
2018-06-27T04:28:41.115Z,16.60
2018-06-27T04:32:43.949Z,13.03
2018-06-27T04:36:46.847Z,18.83
2018-06-27T04:40:49.732Z,13.90
2018-06-27T04:44:52.556Z,14.90
2018-06-27T04:48:55.482Z,16.87
2018-06-27T04:52:58.399Z,18.57
2018-06-27T04:57:01.352Z,30.07
2018-06-27T05:01:05.234Z,26.17
2018-06-27T05:05:08.087Z,21.20
2018-06-27T05:09:10.911Z,27.47
2018-06-27T05:13:13.824Z,27.10
2018-06-27T05:17:16.680Z,23.90
2018-06-27T05:21:19.541Z,23.47
2018-06-27T05:25:22.343Z,29.73
2018-06-27T05:29:25.162Z,30.20
2018-06-27T05:33:28.020Z,30.90
2018-06-27T05:37:31.587Z,31.63
2018-06-27T05:41:34.481Z,26.60
2018-06-27T05:45:37.331Z,27.63
2018-06-27T05:49:40.150Z,30.57
2018-06-27T05:53:43.010Z,28.80
2018-06-27T05:57:45.883Z,34.40
2018-06-27T06:01:48.758Z,30.60
2018-06-27T06:05:52.622Z,32.33
2018-06-27T06:09:55.408Z,33.23
2018-06-27T06:13:58.343Z,35.63
2018-06-27T06:18:01.211Z,26.83
2018-06-27T06:22:04.131Z,28.93
2018-06-27T06:26:06.992Z,28.97
2018-06-27T06:30:09.918Z,29.77
2018-06-27T06:34:12.808Z,35.70
2018-06-27T06:38:15.670Z,26.47
2018-06-27T06:42:18.788Z,37.17
2018-06-27T06:46:21.700Z,37.73
2018-06-27T06:50:24.458Z,40.23
2018-06-27T06:54:27.469Z,34.50
2018-06-27T06:58:30.755Z,33.10
2018-06-27T07:02:33.633Z,36.70
2018-06-27T07:06:36.417Z,35.63
2018-06-27T07:10:39.284Z,23.37
2018-06-27T07:14:42.237Z,34.20
2018-06-27T07:18:45.354Z,26.73
2018-06-27T07:22:48.298Z,26.30
2018-06-27T07:26:51.130Z,23.20
2018-06-27T07:30:54.102Z,29.43
2018-06-27T07:34:57.059Z,28.27
2018-06-27T07:39:00.033Z,30.80
2018-06-27T07:43:02.846Z,22.77
2018-06-27T07:47:06.125Z,28.90
2018-06-27T07:51:09.015Z,30.63
2018-06-27T07:55:11.853Z,25.63
2018-06-27T07:59:14.725Z,25.80
2018-06-27T08:03:17.621Z,24.47
2018-06-27T08:07:20.520Z,23.80
2018-06-27T08:11:23.365Z,28.47
2018-06-27T08:15:26.205Z,27.97
2018-06-27T08:19:29.014Z,27.23
2018-06-27T08:23:31.899Z,22.00
2018-06-27T08:27:34.750Z,20.13
2018-06-27T08:31:38.343Z,22.37
2018-06-27T08:35:41.281Z,20.63
2018-06-27T08:39:44.460Z,24.27
2018-06-27T08:43:47.513Z,19.63
2018-06-27T08:47:50.589Z,27.30
2018-06-27T08:51:54.598Z,19.90
2018-06-27T08:55:57.707Z,20.37
2018-06-27T09:00:00.531Z,22.23
2018-06-27T09:04:03.379Z,18.17
2018-06-27T09:08:06.185Z,22.17
2018-06-27T09:12:09.035Z,25.70
2018-06-27T09:16:12.019Z,22.07
2018-06-27T09:20:15.129Z,21.80
2018-06-27T09:24:17.909Z,20.23
2018-06-27T09:28:20.715Z,19.13
2018-06-27T09:32:23.629Z,17.97
2018-06-27T09:36:26.502Z,15.27
2018-06-27T09:40:29.302Z,25.20
2018-06-27T09:44:32.118Z,20.43
2018-06-27T09:48:34.941Z,22.60
2018-06-27T09:52:37.750Z,20.33
2018-06-27T09:56:40.664Z,18.23
2018-06-27T10:00:43.569Z,18.40
2018-06-27T10:04:46.436Z,19.33
2018-06-27T10:08:50.194Z,15.60
2018-06-27T10:12:53.382Z,16.30
2018-06-27T10:16:56.280Z,16.17
2018-06-27T10:20:59.207Z,18.37
2018-06-27T10:25:02.114Z,12.77
2018-06-27T10:29:05.120Z,14.00
2018-06-27T10:33:08.074Z,13.27
2018-06-27T10:37:10.949Z,13.50
2018-06-27T10:41:13.787Z,9.90
2018-06-27T10:45:16.686Z,17.97
2018-06-27T10:49:19.486Z,14.13
2018-06-27T10:53:22.275Z,17.03
2018-06-27T10:57:25.109Z,13.30
2018-06-27T11:01:27.881Z,12.00
2018-06-27T11:05:30.943Z,8.70
2018-06-27T11:09:35.204Z,10.33
2018-06-27T11:13:38.420Z,7.00
2018-06-27T11:17:41.781Z,6.57
2018-06-27T11:21:45.155Z,11.00
2018-06-27T11:25:48.167Z,10.07
2018-06-27T11:29:51.151Z,9.47
2018-06-27T11:33:53.937Z,8.60
2018-06-27T11:37:57.255Z,19.90
2018-06-27T11:42:00.080Z,5.83
2018-06-27T11:46:02.938Z,5.77
2018-06-27T11:50:05.889Z,7.03
2018-06-27T11:54:09.592Z,5.10
2018-06-27T11:58:14.323Z,5.40
2018-06-27T12:02:17.155Z,6.37
2018-06-27T12:06:19.988Z,8.20
2018-06-27T12:10:22.859Z,8.83
2018-06-27T12:14:25.704Z,7.57
2018-06-27T12:18:28.538Z,11.10
2018-06-27T12:22:31.555Z,4.17
2018-06-27T12:26:34.429Z,6.43
2018-06-27T12:30:37.282Z,8.07
2018-06-27T12:34:40.578Z,6.77
2018-06-27T12:38:43.568Z,7.37
2018-06-27T12:42:46.344Z,5.97
2018-06-27T12:46:49.240Z,11.87
2018-06-27T12:50:52.207Z,6.10
2018-06-27T12:55:02.029Z,5.17
2018-06-27T12:59:04.960Z,6.40
2018-06-27T13:03:07.910Z,6.73
2018-06-27T13:07:10.816Z,3.60
2018-06-27T13:11:13.876Z,6.63
2018-06-27T13:15:16.727Z,8.57
2018-06-27T13:19:19.649Z,8.87
2018-06-27T13:23:22.494Z,11.90
2018-06-27T13:27:25.313Z,6.80
2018-06-27T13:31:28.266Z,8.30
2018-06-27T13:35:31.152Z,4.87
2018-06-27T13:39:34.213Z,9.07
2018-06-27T13:43:37.404Z,6.90
2018-06-27T13:47:40.476Z,3.83
2018-06-27T13:51:43.402Z,8.60
2018-06-27T13:55:46.296Z,6.43
2018-06-27T13:59:49.105Z,5.10
2018-06-27T14:03:51.891Z,6.87
2018-06-27T14:07:54.783Z,4.43
2018-06-27T14:11:58.304Z,6.20
2018-06-27T14:16:01.293Z,4.40
2018-06-27T14:20:04.726Z,4.30
2018-06-27T14:24:07.745Z,6.10
2018-06-27T14:28:12.772Z,7.10
2018-06-27T14:32:15.748Z,6.90
2018-06-27T14:36:18.746Z,8.97
2018-06-27T14:40:21.775Z,3.83
2018-06-27T14:44:24.836Z,6.20
2018-06-27T14:48:27.914Z,5.73
2018-06-27T14:52:30.771Z,5.30
2018-06-27T14:56:33.839Z,4.03
2018-06-27T15:00:36.795Z,8.03
2018-06-27T15:04:39.587Z,8.03
2018-06-27T15:08:42.840Z,4.87
2018-06-27T15:12:45.797Z,8.37
2018-06-27T15:16:51.033Z,5.73
2018-06-27T15:20:53.807Z,4.90
2018-06-27T15:25:17.452Z,5.77
2018-06-27T15:29:20.960Z,8.40
2018-06-27T15:33:23.811Z,4.53
2018-06-27T15:37:42.945Z,3.73
2018-06-27T15:41:47.664Z,6.23
2018-06-27T15:45:50.565Z,6.80
2018-06-27T15:49:53.492Z,8.47
2018-06-27T15:53:56.370Z,4.37
2018-06-27T15:57:59.223Z,2.83
2018-06-27T16:02:02.125Z,4.10
2018-06-27T16:06:05.070Z,5.17
2018-06-27T16:10:07.960Z,3.87
2018-06-27T16:14:10.804Z,2.70
2018-06-27T16:18:13.725Z,2.93
2018-06-27T16:22:16.575Z,2.97
2018-06-27T16:26:19.501Z,4.03
2018-06-27T16:30:22.380Z,2.47
2018-06-27T16:34:25.242Z,2.07
2018-06-27T16:38:28.068Z,3.57
2018-06-27T16:42:30.896Z,4.70
2018-06-27T16:46:33.696Z,3.20
2018-06-27T16:50:36.583Z,4.73
2018-06-27T16:54:39.415Z,2.87
2018-06-27T16:58:42.285Z,1.80
2018-06-27T17:02:45.076Z,2.13
2018-06-27T17:06:48.029Z,1.63
2018-06-27T17:10:50.934Z,1.33
2018-06-27T17:14:53.757Z,2.50
2018-06-27T17:18:56.683Z,1.97
2018-06-27T17:22:59.470Z,1.60
2018-06-27T17:27:02.312Z,1.30
2018-06-27T17:31:05.125Z,3.90
2018-06-27T17:35:07.979Z,1.20
2018-06-27T17:39:10.922Z,4.50
2018-06-27T17:43:13.807Z,6.50
2018-06-27T17:47:16.647Z,1.30
2018-06-27T17:51:19.523Z,2.10
2018-06-27T17:55:22.414Z,6.07
2018-06-27T17:59:25.325Z,2.13
2018-06-27T18:03:28.217Z,3.97
2018-06-27T18:07:31.126Z,4.37
2018-06-27T18:11:35.343Z,3.90
2018-06-27T18:15:38.251Z,2.30
2018-06-27T18:19:41.108Z,2.30
2018-06-27T18:23:43.991Z,3.37
2018-06-27T18:27:46.845Z,5.20
2018-06-27T18:31:49.749Z,3.63
2018-06-27T18:35:52.503Z,3.87
2018-06-27T18:39:55.278Z,2.43
2018-06-27T18:43:58.121Z,2.20
2018-06-27T18:48:00.982Z,3.23
2018-06-27T18:52:03.889Z,2.10
2018-06-27T18:56:06.815Z,4.47
2018-06-27T19:00:10.568Z,5.63
2018-06-27T19:04:13.542Z,5.33
2018-06-27T19:08:16.536Z,5.07
2018-06-27T19:12:19.369Z,5.40
2018-06-27T19:16:22.200Z,2.07
2018-06-27T19:20:25.888Z,3.53
2018-06-27T19:24:28.795Z,3.53
2018-06-27T19:28:31.677Z,9.17
2018-06-27T19:32:34.957Z,4.37
2018-06-27T19:36:37.889Z,4.10
2018-06-27T19:40:41.402Z,4.37
2018-06-27T19:44:44.350Z,6.37
2018-06-27T19:48:47.353Z,4.13
2018-06-27T19:52:50.259Z,3.60
2018-06-27T19:56:53.255Z,5.33
2018-06-27T20:00:56.325Z,4.47
2018-06-27T20:04:59.485Z,3.60
2018-06-27T20:09:02.596Z,5.80
2018-06-27T20:13:05.750Z,4.70
2018-06-27T20:17:08.689Z,3.30
2018-06-27T20:21:11.657Z,3.33
2018-06-27T20:25:14.717Z,7.47
2018-06-27T20:29:17.731Z,5.00
2018-06-27T20:33:20.547Z,2.77
2018-06-27T20:37:23.683Z,5.03
2018-06-27T20:41:27.214Z,4.60
2018-06-27T20:45:30.087Z,4.40
2018-06-27T20:49:33.254Z,4.30
2018-06-27T20:53:36.199Z,12.00
2018-06-27T20:57:39.012Z,4.97
2018-06-27T21:01:41.808Z,2.83
2018-06-27T21:05:44.666Z,2.93
2018-06-27T21:09:47.517Z,6.97
2018-06-27T21:13:50.401Z,4.67
2018-06-27T21:17:53.251Z,6.10
2018-06-27T21:21:56.244Z,6.77
2018-06-27T21:25:59.750Z,5.10
2018-06-27T21:30:02.724Z,4.57
2018-06-27T21:34:05.555Z,5.07
2018-06-27T21:38:08.352Z,6.63
2018-06-27T21:42:11.180Z,11.40
2018-06-27T21:46:15.079Z,5.97
2018-06-27T21:50:17.904Z,3.67
2018-06-27T21:54:20.703Z,4.23
2018-06-27T21:58:23.565Z,6.43
2018-06-27T22:02:26.467Z,3.77
2018-06-27T22:06:29.309Z,4.93
2018-06-27T22:10:32.129Z,3.17
2018-06-27T22:14:34.955Z,9.07
2018-06-27T22:18:37.768Z,4.67
2018-06-27T22:22:40.729Z,5.73
2018-06-27T22:26:43.527Z,3.07
2018-06-27T22:30:46.402Z,6.03
2018-06-27T22:34:49.416Z,3.77
2018-06-27T22:38:52.843Z,3.43
2018-06-27T22:42:55.658Z,3.63
2018-06-27T22:46:58.506Z,7.87
2018-06-27T22:51:01.278Z,3.43
2018-06-27T22:55:04.166Z,4.40
2018-06-27T22:59:07.051Z,3.93
2018-06-27T23:03:09.833Z,4.23
2018-06-27T23:07:12.700Z,3.53
2018-06-27T23:11:15.542Z,3.20
2018-06-27T23:15:18.362Z,5.23
2018-06-27T23:19:21.277Z,5.27
2018-06-27T23:23:24.052Z,3.57
2018-06-27T23:27:26.833Z,5.23
2018-06-27T23:31:29.647Z,3.40
2018-06-27T23:35:32.493Z,7.80
2018-06-27T23:39:35.372Z,3.77
2018-06-27T23:43:38.964Z,4.00
2018-06-27T23:47:42.003Z,5.63
2018-06-27T23:51:46.558Z,4.57
2018-06-27T23:55:49.563Z,6.27
2018-06-27T23:59:52.452Z,4.20
